Time;durP1;ratioP1;P1;durP2;ratioP2;P2;SDS_P1;SDS_P2;PMS_P1;PMS_P2;Temp;Humidity;BMP_temperature;BMP_pressure;BME280_temperature;BME280_humidity;BME280_pressure;Samples;Min_cycle;Max_cycle;Signal;HPM_P1;HPM_P2
2023/12/19 00:01:13;;;;;;;;;;;19.50;59.10;;;;;;5036824;28;20359;-59
2023/12/19 00:03:38;;;;;;;;;;;19.50;59.00;;;;;;5054185;28;19921;-60
2023/12/19 00:06:04;;;;;;;;;;;19.50;59.00;;;;;;5037136;28;19925;-59
2023/12/19 00:08:29;;;;;;;;;;;19.50;59.00;;;;;;5037191;28;19929;-60
2023/12/19 00:10:55;;;;;;;;;;;19.50;58.90;;;;;;5035213;28;19978;-60
2023/12/19 00:13:20;;;;;;;;;;;19.50;58.90;;;;;;5054502;28;19925;-60
2023/12/19 00:15:46;;;;;;;;;;;19.50;58.90;;;;;;5054506;28;19936;-60
2023/12/19 00:18:11;;;;;;;;;;;19.50;58.90;;;;;;5035931;28;20015;-60
2023/12/19 00:20:37;;;;;;;;;;;19.50;58.90;;;;;;5036232;28;20015;-59
2023/12/19 00:23:03;;;;;;;;;;;19.40;58.80;;;;;;5036276;28;19947;-59
2023/12/19 00:25:30;;;;;;;;;;;19.40;58.80;;;;;;5053779;28;19925;-59
2023/12/19 00:27:55;;;;;;;;;;;19.40;58.80;;;;;;5036244;28;20392;-60
2023/12/19 00:30:21;;;;;;;;;;;19.40;58.80;;;;;;5036112;28;19959;-60
2023/12/19 00:32:46;;;;;;;;;;;19.40;58.80;;;;;;5054469;28;19967;-59
2023/12/19 00:35:12;;;;;;;;;;;19.40;58.80;;;;;;5036335;28;19925;-59
2023/12/19 00:37:37;;;;;;;;;;;19.40;58.80;;;;;;5053596;28;19933;-59
2023/12/19 00:40:04;;;;;;;;;;;19.40;58.80;;;;;;5053978;28;19929;-60
2023/12/19 00:42:29;;;;;;;;;;;19.40;58.80;;;;;;5036843;28;19963;-59
2023/12/19 00:44:55;;;;;;;;;;;19.40;58.80;;;;;;5035098;28;20493;-60
2023/12/19 00:47:20;;;;;;;;;;;19.40;58.80;;;;;;5036101;28;19925;-59
2023/12/19 00:49:46;;;;;;;;;;;19.40;58.80;;;;;;5036099;28;19921;-59
2023/12/19 00:52:11;;;;;;;;;;;19.30;58.70;;;;;;5053001;28;19951;-60
2023/12/19 00:54:37;;;;;;;;;;;19.40;58.70;;;;;;5035961;28;20361;-59
2023/12/19 00:57:03;;;;;;;;;;;19.30;58.70;;;;;;5053538;28;19931;-60
2023/12/19 00:59:28;;;;;;;;;;;19.30;58.70;;;;;;5035474;28;19925;-60
2023/12/19 01:01:55;;;;;;;;;;;19.30;58.60;;;;;;5035575;28;19928;-59
2023/12/19 01:04:20;;;;;;;;;;;19.30;58.70;;;;;;5035872;28;19987;-60
2023/12/19 01:06:46;;;;;;;;;;;19.30;58.70;;;;;;5052971;28;20327;-59
2023/12/19 01:09:13;;;;;;;;;;;19.30;58.60;;;;;;5035775;28;19935;-59
2023/12/19 01:11:38;;;;;;;;;;;19.20;58.60;;;;;;5035761;28;19936;-60
2023/12/19 01:14:03;;;;;;;;;;;19.30;58.60;;;;;;5034496;28;19925;-60
2023/12/19 01:16:29;;;;;;;;;;;19.20;58.50;;;;;;5053662;28;20403;-60
2023/12/19 01:18:55;;;;;;;;;;;19.20;58.60;;;;;;5035713;28;19925;-60
2023/12/19 01:21:20;;;;;;;;;;;19.20;58.50;;;;;;5052687;28;19978;-59
2023/12/19 01:23:46;;;;;;;;;;;19.20;58.50;;;;;;5035227;28;19986;-59
2023/12/19 01:26:11;;;;;;;;;;;19.20;58.50;;;;;;5053227;28;19989;-59
2023/12/19 01:28:40;;;;;;;;;;;19.20;58.50;;;;;;5018003;28;20000;-60
2023/12/19 01:31:05;;;;;;;;;;;19.20;58.60;;;;;;5035217;28;19932;-59
2023/12/19 01:33:31;;;;;;;;;;;19.20;58.50;;;;;;5052864;28;19921;-59
2023/12/19 01:35:56;;;;;;;;;;;19.20;58.50;;;;;;5034733;28;19969;-59
2023/12/19 01:38:22;;;;;;;;;;;19.20;58.50;;;;;;5053048;28;19925;-59
2023/12/19 01:40:47;;;;;;;;;;;19.20;58.60;;;;;;5034769;28;20296;-59
2023/12/19 01:43:19;;;;;;;;;;;19.10;58.50;;;;;;5052966;28;19932;-59
2023/12/19 01:45:45;;;;;;;;;;;19.10;58.50;;;;;;5035187;28;19925;-60
2023/12/19 01:48:10;;;;;;;;;;;19.10;58.50;;;;;;5052316;28;19924;-59
2023/12/19 01:50:36;;;;;;;;;;;19.10;58.50;;;;;;5053021;28;19925;-59
2023/12/19 01:53:01;;;;;;;;;;;19.10;58.40;;;;;;5035176;28;19971;-59
2023/12/19 01:55:27;;;;;;;;;;;19.10;58.50;;;;;;5034453;28;19925;-59
2023/12/19 01:57:53;;;;;;;;;;;19.10;58.40;;;;;;5052819;28;19925;-59
2023/12/19 02:00:19;;;;;;;;;;;19.10;58.50;;;;;;5053083;28;19946;-59
2023/12/19 02:02:45;;;;;;;;;;;19.10;58.50;;;;;;5034328;28;20440;-60
2023/12/19 02:05:10;;;;;;;;;;;19.10;58.50;;;;;;5034774;28;20016;-59
2023/12/19 02:07:36;;;;;;;;;;;19.10;58.50;;;;;;5035277;28;19924;-59
2023/12/19 02:10:01;;;;;;;;;;;19.10;58.50;;;;;;5051941;28;20258;-59
2023/12/19 02:12:27;;;;;;;;;;;19.10;58.50;;;;;;5035213;28;20011;-60
2023/12/19 02:14:52;;;;;;;;;;;19.00;58.40;;;;;;5052383;28;19964;-59
2023/12/19 02:17:19;;;;;;;;;;;19.00;58.30;;;;;;5034525;28;19975;-59
2023/12/19 02:19:45;;;;;;;;;;;19.00;58.40;;;;;;5052695;28;20353;-60
2023/12/19 02:22:11;;;;;;;;;;;19.00;58.40;;;;;;5052307;28;20388;-59
2023/12/19 02:24:36;;;;;;;;;;;19.00;58.40;;;;;;5056631;28;19932;-60
2023/12/19 02:27:02;;;;;;;;;;;19.00;58.40;;;;;;5025958;28;19924;-60
2023/12/19 02:29:28;;;;;;;;;;;19.00;58.40;;;;;;5072807;28;19925;-60
2023/12/19 02:31:53;;;;;;;;;;;19.00;58.40;;;;;;5053719;28;19924;-60
2023/12/19 02:34:19;;;;;;;;;;;19.00;58.40;;;;;;5074497;28;20372;-60
2023/12/19 02:36:44;;;;;;;;;;;19.00;58.40;;;;;;5076497;28;19928;-60
2023/12/19 02:39:10;;;;;;;;;;;19.00;58.40;;;;;;5056785;28;20023;-60
2023/12/19 02:41:35;;;;;;;;;;;19.00;58.40;;;;;;5076204;28;19928;-60
2023/12/19 02:44:01;;;;;;;;;;;19.00;58.40;;;;;;5057608;28;19927;-60
2023/12/19 02:46:26;;;;;;;;;;;19.00;58.40;;;;;;5058465;28;20323;-60
2023/12/19 02:48:52;;;;;;;;;;;19.00;58.40;;;;;;5038110;28;19925;-60
2023/12/19 02:51:20;;;;;;;;;;;19.00;58.40;;;;;;5037677;28;19931;-60
2023/12/19 02:53:46;;;;;;;;;;;18.90;58.30;;;;;;5056435;28;19924;-60
2023/12/19 02:56:11;;;;;;;;;;;18.90;58.30;;;;;;5038090;28;19931;-59
2023/12/19 02:58:37;;;;;;;;;;;18.90;58.30;;;;;;5037544;28;20335;-60
2023/12/19 03:01:05;;;;;;;;;;;18.90;58.30;;;;;;5055453;28;19932;-60
2023/12/19 03:03:31;;;;;;;;;;;18.90;58.30;;;;;;5055773;28;19978;-60
2023/12/19 03:05:56;;;;;;;;;;;18.90;58.30;;;;;;5054462;28;19925;-60
2023/12/19 03:08:22;;;;;;;;;;;18.90;58.30;;;;;;5038203;28;19925;-60
2023/12/19 03:10:48;;;;;;;;;;;18.90;58.30;;;;;;5037833;28;19932;-60
2023/12/19 03:13:13;;;;;;;;;;;19.00;58.40;;;;;;5055785;28;20003;-60
2023/12/19 03:15:39;;;;;;;;;;;18.90;58.30;;;;;;5075762;28;19924;-60
2023/12/19 03:18:04;;;;;;;;;;;18.90;58.30;;;;;;5075485;28;19924;-60
2023/12/19 03:20:30;;;;;;;;;;;18.90;58.30;;;;;;5074967;28;20066;-60
2023/12/19 03:22:55;;;;;;;;;;;18.90;58.30;;;;;;5057337;28;19986;-60
2023/12/19 03:25:21;;;;;;;;;;;19.00;58.30;;;;;;5055672;28;19929;-60
2023/12/19 03:27:46;;;;;;;;;;;19.00;58.30;;;;;;5054688;28;20015;-60
2023/12/19 03:30:12;;;;;;;;;;;18.90;58.20;;;;;;5055116;28;20393;-60
2023/12/19 03:32:37;;;;;;;;;;;19.00;58.30;;;;;;5055641;28;19924;-60
2023/12/19 03:35:03;;;;;;;;;;;19.00;58.30;;;;;;5036611;28;20016;-60
2023/12/19 03:37:28;;;;;;;;;;;19.00;58.30;;;;;;5055588;28;20008;-60
2023/12/19 03:39:54;;;;;;;;;;;19.00;58.30;;;;;;5037243;28;19928;-60
2023/12/19 03:42:19;;;;;;;;;;;19.00;58.30;;;;;;5054517;28;20134;-60
2023/12/19 03:44:45;;;;;;;;;;;19.00;58.20;;;;;;5055115;28;19925;-60
2023/12/19 03:47:11;;;;;;;;;;;19.00;58.30;;;;;;5053636;28;19947;-60
2023/12/19 03:49:37;;;;;;;;;;;19.00;58.30;;;;;;5055254;28;19925;-60
2023/12/19 03:52:02;;;;;;;;;;;19.00;58.20;;;;;;5054833;28;19925;-60
2023/12/19 03:54:29;;;;;;;;;;;19.00;58.20;;;;;;5054298;28;19925;-60
2023/12/19 03:56:54;;;;;;;;;;;19.00;58.20;;;;;;5037230;28;19932;-60
2023/12/19 03:59:20;;;;;;;;;;;19.00;58.20;;;;;;5037223;28;19928;-60
2023/12/19 04:01:45;;;;;;;;;;;19.00;58.20;;;;;;5054299;28;19925;-60
2023/12/19 04:04:11;;;;;;;;;;;19.00;58.20;;;;;;5054651;28;20023;-60
2023/12/19 04:06:40;;;;;;;;;;;19.00;58.20;;;;;;5054631;28;19983;-60
2023/12/19 04:09:06;;;;;;;;;;;19.00;58.10;;;;;;5035791;28;19935;-60
2023/12/19 04:11:31;;;;;;;;;;;19.00;58.20;;;;;;5037214;28;19925;-60
2023/12/19 04:13:57;;;;;;;;;;;19.10;58.20;;;;;;5054352;28;19929;-60
2023/12/19 04:16:22;;;;;;;;;;;19.10;58.20;;;;;;5054056;28;20403;-60
2023/12/19 04:18:48;;;;;;;;;;;19.10;58.20;;;;;;5037326;28;19980;-60
2023/12/19 04:21:13;;;;;;;;;;;19.10;58.20;;;;;;5054139;28;20307;-60
2023/12/19 04:23:39;;;;;;;;;;;19.10;58.20;;;;;;5053859;28;19936;-60
2023/12/19 04:26:04;;;;;;;;;;;19.10;58.10;;;;;;5036034;28;20475;-60
2023/12/19 04:28:30;;;;;;;;;;;19.10;58.10;;;;;;5036606;28;19928;-61
2023/12/19 04:30:55;;;;;;;;;;;19.10;58.10;;;;;;5053313;28;19931;-60
2023/12/19 04:33:21;;;;;;;;;;;19.10;58.10;;;;;;5054250;28;19932;-60
2023/12/19 04:35:46;;;;;;;;;;;19.20;58.20;;;;;;5036477;28;19968;-60
2023/12/19 04:38:12;;;;;;;;;;;19.20;58.10;;;;;;5072107;28;20003;-60
2023/12/19 04:40:37;;;;;;;;;;;19.20;58.10;;;;;;5074254;28;19951;-60
2023/12/19 04:43:03;;;;;;;;;;;19.20;58.10;;;;;;5055958;28;19924;-60
2023/12/19 04:45:28;;;;;;;;;;;19.20;58.10;;;;;;5055566;28;19932;-60
2023/12/19 04:47:54;;;;;;;;;;;19.20;58.10;;;;;;5074030;28;19956;-60
2023/12/19 04:50:19;;;;;;;;;;;19.30;58.20;;;;;;5056086;28;20388;-60
2023/12/19 04:52:45;;;;;;;;;;;19.30;58.20;;;;;;5073199;28;19924;-60
2023/12/19 04:55:10;;;;;;;;;;;19.30;58.10;;;;;;5055579;28;20446;-60
2023/12/19 04:57:36;;;;;;;;;;;19.30;58.20;;;;;;5054551;28;19920;-60
2023/12/19 05:00:01;;;;;;;;;;;19.30;58.10;;;;;;5055017;28;20011;-60
2023/12/19 05:02:26;;;;;;;;;;;19.30;58.10;;;;;;5041346;28;19932;-60
2023/12/19 05:04:53;;;;;;;;;;;19.30;58.10;;;;;;5050126;28;20051;-60
2023/12/19 05:07:18;;;;;;;;;;;19.30;58.10;;;;;;5035030;28;20399;-60
2023/12/19 05:09:44;;;;;;;;;;;19.40;58.10;;;;;;5051435;28;19925;-60
2023/12/19 05:12:09;;;;;;;;;;;19.40;58.10;;;;;;5034899;28;19932;-60
2023/12/19 05:14:35;;;;;;;;;;;19.40;58.10;;;;;;5035547;28;20303;-60
2023/12/19 05:17:03;;;;;;;;;;;19.40;58.00;;;;;;5052717;28;19924;-60
2023/12/19 05:19:29;;;;;;;;;;;19.40;58.10;;;;;;5059267;28;19940;-60
2023/12/19 05:21:54;;;;;;;;;;;19.40;58.10;;;;;;5073045;28;19924;-60
2023/12/19 05:24:20;;;;;;;;;;;19.50;58.10;;;;;;5072206;28;19929;-60
2023/12/19 05:26:45;;;;;;;;;;;19.50;58.10;;;;;;5072544;28;19931;-60
2023/12/19 05:29:11;;;;;;;;;;;19.50;58.10;;;;;;5073058;28;20019;-60
2023/12/19 05:31:36;;;;;;;;;;;19.50;58.10;;;;;;5055590;28;19930;-60
2023/12/19 05:34:03;;;;;;;;;;;19.50;58.10;;;;;;5054288;28;20296;-60
2023/12/19 05:36:31;;;;;;;;;;;19.50;58.10;;;;;;5055489;28;19924;-60
2023/12/19 05:38:56;;;;;;;;;;;19.50;58.00;;;;;;5072656;28;19924;-60
2023/12/19 05:41:22;;;;;;;;;;;19.50;58.00;;;;;;5072561;28;20284;-60
2023/12/19 05:43:47;;;;;;;;;;;19.60;58.80;;;;;;5055321;28;19976;-60
2023/12/19 05:46:13;;;;;;;;;;;19.60;58.10;;;;;;5054703;28;19924;-60
2023/12/19 05:48:39;;;;;;;;;;;19.60;58.10;;;;;;5054291;28;19924;-60
2023/12/19 05:51:05;;;;;;;;;;;19.60;58.00;;;;;;5055096;28;19931;-60
2023/12/19 05:53:30;;;;;;;;;;;19.60;58.00;;;;;;5054550;28;19928;-60
2023/12/19 05:55:56;;;;;;;;;;;19.60;58.00;;;;;;5053733;28;19928;-60
2023/12/19 05:58:21;;;;;;;;;;;19.60;57.90;;;;;;5072724;28;19924;-60
2023/12/19 06:00:48;;;;;;;;;;;19.60;58.00;;;;;;5072993;28;20356;-60
2023/12/19 06:03:14;;;;;;;;;;;19.60;57.90;;;;;;5072512;28;19939;-60
2023/12/19 06:05:39;;;;;;;;;;;19.60;58.70;;;;;;5073050;28;19924;-60
2023/12/19 06:08:08;;;;;;;;;;;19.70;58.00;;;;;;5071729;28;19940;-60
2023/12/19 06:10:33;;;;;;;;;;;19.70;58.00;;;;;;5057597;28;20373;-60
2023/12/19 06:13:00;;;;;;;;;;;19.70;58.00;;;;;;5076113;28;19929;-60
2023/12/19 06:15:25;;;;;;;;;;;19.70;58.00;;;;;;5076135;28;19924;-60
2023/12/19 06:17:51;;;;;;;;;;;19.70;58.00;;;;;;5058782;28;20011;-60
2023/12/19 06:20:16;;;;;;;;;;;19.70;58.00;;;;;;5057207;28;19929;-60
2023/12/19 06:22:42;;;;;;;;;;;19.70;58.00;;;;;;5057902;28;19925;-60
2023/12/19 06:25:08;;;;;;;;;;;19.70;58.00;;;;;;5076237;28;19925;-60
2023/12/19 06:27:34;;;;;;;;;;;19.70;58.00;;;;;;5058055;28;19925;-60
2023/12/19 06:29:59;;;;;;;;;;;19.70;58.00;;;;;;5075490;28;19982;-60
2023/12/19 06:32:25;;;;;;;;;;;19.70;57.90;;;;;;5076751;28;19924;-60
2023/12/19 06:34:50;;;;;;;;;;;19.70;57.90;;;;;;5076449;28;19961;-60
2023/12/19 06:37:16;;;;;;;;;;;19.70;57.90;;;;;;5057445;28;19924;-60
2023/12/19 06:39:42;;;;;;;;;;;19.70;57.90;;;;;;5075788;28;19920;-60
2023/12/19 06:42:08;;;;;;;;;;;19.80;57.90;;;;;;5059428;28;19932;-60
2023/12/19 06:44:33;;;;;;;;;;;19.80;57.90;;;;;;5076538;28;19931;-60
2023/12/19 06:46:58;;;;;;;;;;;19.80;57.90;;;;;;5058087;28;19925;-60
2023/12/19 06:49:27;;;;;;;;;;;19.80;58.00;;;;;;5076393;28;19986;-60
2023/12/19 06:51:52;;;;;;;;;;;19.80;57.90;;;;;;5057554;28;19947;-60
2023/12/19 06:54:18;;;;;;;;;;;19.80;58.00;;;;;;5075987;28;20358;-60
2023/12/19 06:56:43;;;;;;;;;;;19.80;58.00;;;;;;5076222;28;19931;-60
2023/12/19 06:59:09;;;;;;;;;;;19.80;57.90;;;;;;5075332;28;20003;-60
2023/12/19 07:01:35;;;;;;;;;;;19.80;57.90;;;;;;5058402;28;19978;-60
2023/12/19 07:04:00;;;;;;;;;;;19.80;57.90;;;;;;5057882;28;20396;-60
2023/12/19 07:06:26;;;;;;;;;;;19.80;57.90;;;;;;5057312;28;19924;-59
2023/12/19 07:08:52;;;;;;;;;;;19.80;57.90;;;;;;5075425;28;19928;-60
2023/12/19 07:11:19;;;;;;;;;;;19.80;57.90;;;;;;5057488;28;19932;-59
2023/12/19 07:13:45;;;;;;;;;;;19.90;58.00;;;;;;5057738;28;20295;-60
2023/12/19 07:16:14;;;;;;;;;;;19.80;58.10;;;;;;5057587;28;20367;-59
2023/12/19 07:18:40;;;;;;;;;;;19.80;58.30;;;;;;5056599;28;19928;-60
2023/12/19 07:21:06;;;;;;;;;;;19.90;58.30;;;;;;5057036;28;19969;-59
2023/12/19 07:23:31;;;;;;;;;;;19.90;58.50;;;;;;5075452;28;19928;-61
2023/12/19 07:25:57;;;;;;;;;;;19.90;58.40;;;;;;5056716;28;19924;-59
2023/12/19 07:28:23;;;;;;;;;;;19.90;58.50;;;;;;5057488;28;20403;-60
2023/12/19 07:30:49;;;;;;;;;;;19.90;58.60;;;;;;5075475;28;19931;-60
2023/12/19 07:33:15;;;;;;;;;;;19.90;58.50;;;;;;5074756;28;19928;-60
2023/12/19 07:35:40;;;;;;;;;;;19.90;58.60;;;;;;5067234;28;20000;-60
2023/12/19 07:38:06;;;;;;;;;;;19.90;58.60;;;;;;5064633;28;20073;-60
2023/12/19 07:40:32;;;;;;;;;;;19.90;58.70;;;;;;5063484;28;19971;-60
2023/12/19 07:42:57;;;;;;;;;;;19.90;58.70;;;;;;5055268;28;19932;-59
2023/12/19 07:45:23;;;;;;;;;;;20.00;58.70;;;;;;5054464;28;19940;-60
2023/12/19 07:47:48;;;;;;;;;;;19.90;58.70;;;;;;5054462;28;19931;-60
2023/12/19 07:50:13;;;;;;;;;;;20.00;58.70;;;;;;5055165;28;19967;-59
2023/12/19 07:52:39;;;;;;;;;;;20.00;58.80;;;;;;5056987;28;20368;-61
2023/12/19 07:55:09;;;;;;;;;;;20.00;58.80;;;;;;5036325;28;19925;-60
2023/12/19 07:57:38;;;;;;;;;;;20.00;58.70;;;;;;5036986;28;19967;-60
2023/12/19 08:00:04;;;;;;;;;;;20.00;58.70;;;;;;5036628;28;19925;-59
2023/12/19 08:02:32;;;;;;;;;;;20.00;58.80;;;;;;5054094;28;20270;-59
2023/12/19 08:04:58;;;;;;;;;;;20.00;58.80;;;;;;5036276;28;19925;-60
2023/12/19 08:07:23;;;;;;;;;;;20.00;59.60;;;;;;5054565;28;19925;-59
2023/12/19 08:09:49;;;;;;;;;;;20.00;59.00;;;;;;5054381;28;20041;-59
2023/12/19 08:12:14;;;;;;;;;;;20.00;59.60;;;;;;5036243;28;20373;-59
2023/12/19 08:14:40;;;;;;;;;;;20.00;59.00;;;;;;5063047;28;19931;-59
2023/12/19 08:17:05;;;;;;;;;;;20.00;59.00;;;;;;5074015;28;19982;-60
2023/12/19 08:19:31;;;;;;;;;;;20.00;58.90;;;;;;5052993;28;19932;-60
2023/12/19 08:21:58;;;;;;;;;;;20.00;59.00;;;;;;5047380;28;19924;-60
2023/12/19 08:24:25;;;;;;;;;;;20.00;59.00;;;;;;5048848;28;20445;-60
2023/12/19 08:26:51;;;;;;;;;;;20.10;59.30;;;;;;5055114;28;19962;-60
2023/12/19 08:29:16;;;;;;;;;;;20.10;59.30;;;;;;5064862;28;19924;-59
2023/12/19 08:31:44;;;;;;;;;;;20.10;59.30;;;;;;5072750;28;19935;-59
2023/12/19 08:34:09;;;;;;;;;;;20.10;59.30;;;;;;5055870;28;19924;-60
2023/12/19 08:36:35;;;;;;;;;;;20.10;59.30;;;;;;5055565;28;19975;-58
2023/12/19 08:39:00;;;;;;;;;;;20.10;59.30;;;;;;5073582;28;20360;-60
2023/12/19 08:41:26;;;;;;;;;;;20.10;59.40;;;;;;5056217;28;19928;-60
2023/12/19 08:43:52;;;;;;;;;;;20.10;59.40;;;;;;5072804;28;19928;-59
2023/12/19 08:46:17;;;;;;;;;;;20.10;59.40;;;;;;5055552;28;19924;-59
2023/12/19 08:48:43;;;;;;;;;;;20.10;59.40;;;;;;5056014;28;19990;-59
2023/12/19 08:51:10;;;;;;;;;;;20.10;59.30;;;;;;5046959;28;19925;-60
2023/12/19 08:53:35;;;;;;;;;;;20.10;59.30;;;;;;5058642;28;19925;-59
2023/12/19 08:56:01;;;;;;;;;;;20.10;59.20;;;;;;5073467;28;19935;-60
2023/12/19 08:58:26;;;;;;;;;;;20.10;59.10;;;;;;5073083;28;19925;-60
2023/12/19 09:00:52;;;;;;;;;;;20.10;59.10;;;;;;5073595;28;20308;-58
2023/12/19 09:03:17;;;;;;;;;;;20.10;59.10;;;;;;5073801;28;20280;-59
2023/12/19 09:05:43;;;;;;;;;;;20.10;59.20;;;;;;5072853;28;20050;-59
2023/12/19 09:08:09;;;;;;;;;;;20.10;59.30;;;;;;5055551;28;19924;-58
2023/12/19 09:10:34;;;;;;;;;;;20.10;59.30;;;;;;5055799;28;19924;-59
2023/12/19 09:13:00;;;;;;;;;;;20.10;59.30;;;;;;5036505;28;20047;-59
2023/12/19 09:15:26;;;;;;;;;;;20.10;59.30;;;;;;5053715;28;20007;-58
2023/12/19 09:17:51;;;;;;;;;;;20.10;59.20;;;;;;5052794;28;20059;-59
2023/12/19 09:20:17;;;;;;;;;;;20.10;59.10;;;;;;5053431;28;20457;-58
2023/12/19 09:22:43;;;;;;;;;;;20.10;59.10;;;;;;5035330;28;20433;-59
2023/12/19 09:25:14;;;;;;;;;;;20.10;59.10;;;;;;5034393;28;20012;-58
2023/12/19 09:27:42;;;;;;;;;;;20.10;59.00;;;;;;5053219;28;19925;-58
2023/12/19 09:30:09;;;;;;;;;;;20.10;59.00;;;;;;5052798;28;19933;-59
2023/12/19 09:32:36;;;;;;;;;;;20.10;59.00;;;;;;5052420;28;20003;-59
2023/12/19 09:35:01;;;;;;;;;;;20.10;58.90;;;;;;5053006;28;19936;-61
2023/12/19 09:37:28;;;;;;;;;;;20.10;59.00;;;;;;5035280;28;19921;-59
2023/12/19 09:39:53;;;;;;;;;;;20.10;59.10;;;;;;5069821;28;20437;-59
2023/12/19 09:42:19;;;;;;;;;;;20.10;59.10;;;;;;5073376;28;19924;-58
2023/12/19 09:44:51;;;;;;;;;;;20.10;59.30;;;;;;5072435;28;19924;-59
2023/12/19 09:47:23;;;;;;;;;;;20.10;59.30;;;;;;5072309;28;19925;-59
2023/12/19 09:49:50;;;;;;;;;;;20.10;59.40;;;;;;5045624;28;19931;-59
2023/12/19 09:52:16;;;;;;;;;;;20.10;59.50;;;;;;5034961;28;19939;-59
2023/12/19 09:54:41;;;;;;;;;;;20.10;59.40;;;;;;5035359;28;19933;-58
2023/12/19 09:57:08;;;;;;;;;;;20.10;59.50;;;;;;5034646;28;19931;-59
2023/12/19 09:59:34;;;;;;;;;;;20.10;59.50;;;;;;5038402;28;19925;-58
2023/12/19 10:01:59;;;;;;;;;;;20.10;59.60;;;;;;5072102;28;20380;-59
2023/12/19 10:04:25;;;;;;;;;;;20.10;59.60;;;;;;5055093;28;19939;-59
2023/12/19 10:06:54;;;;;;;;;;;20.20;59.60;;;;;;5072912;28;19924;-59
2023/12/19 10:09:21;;;;;;;;;;;20.10;59.60;;;;;;5062577;28;19964;-59
2023/12/19 10:11:48;;;;;;;;;;;20.10;59.60;;;;;;5072558;28;20028;-58
2023/12/19 10:14:14;;;;;;;;;;;20.10;59.70;;;;;;5071771;28;19920;-58
2023/12/19 10:16:42;;;;;;;;;;;20.10;59.80;;;;;;5072849;28;19925;-59
2023/12/19 10:19:11;;;;;;;;;;;20.10;59.70;;;;;;5054609;28;19924;-58
2023/12/19 10:21:36;;;;;;;;;;;20.10;59.80;;;;;;5071394;28;20021;-61
2023/12/19 10:24:09;;;;;;;;;;;20.10;59.80;;;;;;5072111;28;19991;-59
2023/12/19 10:26:34;;;;;;;;;;;20.10;59.80;;;;;;5035033;28;20293;-59
2023/12/19 10:29:00;;;;;;;;;;;20.10;59.70;;;;;;5051417;28;19925;-59
2023/12/19 10:31:25;;;;;;;;;;;20.10;59.80;;;;;;5071855;28;19925;-59
2023/12/19 10:33:51;;;;;;;;;;;20.10;59.80;;;;;;5054613;28;20376;-59
2023/12/19 10:36:26;;;;;;;;;;;20.10;59.80;;;;;;5071553;28;19970;-58
2023/12/19 10:38:55;;;;;;;;;;;20.10;59.80;;;;;;5054188;28;20472;-59
2023/12/19 10:41:25;;;;;;;;;;;20.10;59.80;;;;;;5072518;28;19928;-58
2023/12/19 10:43:51;;;;;;;;;;;20.10;59.80;;;;;;5071923;28;19971;-59
2023/12/19 10:46:18;;;;;;;;;;;20.10;59.70;;;;;;5071964;28;20284;-59
2023/12/19 10:48:43;;;;;;;;;;;20.10;59.90;;;;;;5071474;28;19924;-58
2023/12/19 10:51:10;;;;;;;;;;;20.10;59.90;;;;;;5071023;28;19937;-58
2023/12/19 10:53:35;;;;;;;;;;;20.00;59.90;;;;;;5072249;28;20387;-59
2023/12/19 10:56:01;;;;;;;;;;;20.00;59.80;;;;;;5074387;28;19925;-58
2023/12/19 10:58:27;;;;;;;;;;;20.10;59.90;;;;;;5040955;28;19931;-58
2023/12/19 11:00:52;;;;;;;;;;;20.00;59.90;;;;;;5075870;28;19925;-58
2023/12/19 11:03:23;;;;;;;;;;;20.00;60.00;;;;;;5056875;28;19983;-58
2023/12/19 11:05:50;;;;;;;;;;;20.00;59.90;;;;;;5058272;28;19935;-58
2023/12/19 11:08:17;;;;;;;;;;;20.00;59.80;;;;;;5037191;28;19925;-59
2023/12/19 11:10:53;;;;;;;;;;;20.00;59.80;;;;;;5046557;28;20340;-58
2023/12/19 11:13:19;;;;;;;;;;;20.00;60.00;;;;;;5045770;28;19947;-59
2023/12/19 11:15:47;;;;;;;;;;;20.00;60.10;;;;;;5069862;28;20380;-60
2023/12/19 11:18:18;;;;;;;;;;;20.00;60.00;;;;;;5020008;28;19951;-58
2023/12/19 11:20:49;;;;;;;;;;;20.00;60.00;;;;;;5037878;28;20424;-59
2023/12/19 11:23:33;;;;;;;;;;;20.00;60.00;;;;;;5037477;28;19925;-58
2023/12/19 11:26:00;;;;;;;;;;;20.00;60.20;;;;;;5054283;28;19978;-59
2023/12/19 11:28:26;;;;;;;;;;;20.00;60.10;;;;;;5017767;28;19924;-59
2023/12/19 11:30:51;;;;;;;;;;;20.00;60.10;;;;;;5033357;28;20351;-59
2023/12/19 11:33:26;;;;;;;;;;;20.00;60.40;;;;;;5034736;28;19925;-59
2023/12/19 11:35:52;;;;;;;;;;;20.00;60.50;;;;;;5034246;28;20305;-58
2023/12/19 11:38:21;;;;;;;;;;;20.00;60.40;;;;;;5035518;28;20365;-58
2023/12/19 11:40:47;;;;;;;;;;;20.00;60.40;;;;;;5033642;28;19996;-58
2023/12/19 11:43:28;;;;;;;;;;;19.90;60.40;;;;;;5035425;28;19925;-59
2023/12/19 11:45:54;;;;;;;;;;;19.90;60.30;;;;;;5034190;28;19925;-59
2023/12/19 11:48:39;;;;;;;;;;;19.90;60.30;;;;;;5033738;28;19925;-58
2023/12/19 11:51:07;;;;;;;;;;;19.90;60.30;;;;;;5035053;28;19979;-58
2023/12/19 11:53:33;;;;;;;;;;;19.90;60.30;;;;;;5033367;28;20408;-60
2023/12/19 11:56:11;;;;;;;;;;;19.90;60.40;;;;;;5034693;28;19925;-58
2023/12/19 11:58:37;;;;;;;;;;;19.90;60.50;;;;;;5034968;28;19964;-59
2023/12/19 12:01:03;;;;;;;;;;;19.90;60.60;;;;;;5033094;28;19925;-59
2023/12/19 12:03:28;;;;;;;;;;;19.90;60.60;;;;;;5035021;28;20292;-59
2023/12/19 12:05:54;;;;;;;;;;;19.90;60.70;;;;;;5033860;28;19925;-58
2023/12/19 12:08:21;;;;;;;;;;;19.90;60.70;;;;;;5032471;28;20016;-59
2023/12/19 12:11:02;;;;;;;;;;;19.90;60.80;;;;;;5034416;28;19926;-58
2023/12/19 12:13:28;;;;;;;;;;;19.90;60.80;;;;;;5033475;28;20475;-58
2023/12/19 12:15:54;;;;;;;;;;;19.90;60.80;;;;;;5032436;28;19926;-58
2023/12/19 12:18:20;;;;;;;;;;;19.90;60.80;;;;;;5034057;28;20556;-58
2023/12/19 12:20:45;;;;;;;;;;;19.90;60.90;;;;;;5053246;28;19936;-59
2023/12/19 12:23:11;;;;;;;;;;;19.90;60.90;;;;;;5054372;28;19932;-59
2023/12/19 12:25:37;;;;;;;;;;;19.90;60.90;;;;;;5053195;28;19924;-58
2023/12/19 12:28:09;;;;;;;;;;;19.90;60.90;;;;;;5042164;28;19931;-59
2023/12/19 12:30:35;;;;;;;;;;;19.90;60.90;;;;;;5063386;28;19954;-59
2023/12/19 12:33:01;;;;;;;;;;;19.90;60.90;;;;;;5060198;28;19928;-58
2023/12/19 12:35:28;;;;;;;;;;;19.90;60.90;;;;;;5044021;28;19925;-59
2023/12/19 12:37:55;;;;;;;;;;;19.90;60.90;;;;;;5063572;28;19963;-58
2023/12/19 12:40:20;;;;;;;;;;;19.90;60.90;;;;;;5046510;28;19924;-58
2023/12/19 12:42:46;;;;;;;;;;;20.00;61.00;;;;;;5061943;28;19931;-58
2023/12/19 12:45:15;;;;;;;;;;;20.00;61.00;;;;;;5063855;28;20265;-58
2023/12/19 12:47:41;;;;;;;;;;;20.00;61.10;;;;;;5046515;28;19924;-58
2023/12/19 12:50:07;;;;;;;;;;;20.00;61.10;;;;;;5043794;28;19925;-58
2023/12/19 12:52:33;;;;;;;;;;;20.00;61.10;;;;;;5064029;28;19924;-58
2023/12/19 12:55:02;;;;;;;;;;;20.00;61.10;;;;;;5053602;28;20007;-58
2023/12/19 12:57:28;;;;;;;;;;;20.00;61.10;;;;;;5035497;28;20288;-58
2023/12/19 12:59:54;;;;;;;;;;;20.00;61.00;;;;;;5035820;28;20369;-61
2023/12/19 13:02:19;;;;;;;;;;;20.10;61.10;;;;;;5052620;28;19932;-58
2023/12/19 13:04:45;;;;;;;;;;;20.10;61.20;;;;;;5052460;28;19925;-58
2023/12/19 13:07:10;;;;;;;;;;;20.10;61.10;;;;;;5053570;28;19924;-58
2023/12/19 13:09:36;;;;;;;;;;;20.10;61.10;;;;;;5053989;28;19931;-58
2023/12/19 13:12:02;;;;;;;;;;;20.10;61.10;;;;;;5072325;28;20338;-58
2023/12/19 13:14:27;;;;;;;;;;;20.10;61.00;;;;;;5073726;28;19970;-59
2023/12/19 13:16:53;;;;;;;;;;;20.10;61.10;;;;;;5061451;28;19925;-59
2023/12/19 13:19:18;;;;;;;;;;;20.10;61.10;;;;;;5035567;28;20031;-59
2023/12/19 13:21:44;;;;;;;;;;;20.10;61.10;;;;;;5051015;28;19924;-59
2023/12/19 13:24:09;;;;;;;;;;;20.10;61.10;;;;;;5054500;28;19950;-60
2023/12/19 13:26:35;;;;;;;;;;;20.10;61.10;;;;;;5055176;28;19928;-60
2023/12/19 13:29:01;;;;;;;;;;;20.10;61.10;;;;;;5071975;28;19936;-59
2023/12/19 13:31:29;;;;;;;;;;;20.10;61.10;;;;;;5072434;28;20031;-59
2023/12/19 13:33:54;;;;;;;;;;;20.10;61.10;;;;;;5055029;28;20291;-60
2023/12/19 13:36:21;;;;;;;;;;;20.20;61.20;;;;;;5055083;28;20419;-59
2023/12/19 13:38:47;;;;;;;;;;;20.20;61.20;;;;;;5072589;28;19924;-59
2023/12/19 13:41:12;;;;;;;;;;;20.20;61.30;;;;;;5053662;28;19928;-60
2023/12/19 13:43:38;;;;;;;;;;;20.20;61.30;;;;;;5072889;28;19966;-59
2023/12/19 13:46:06;;;;;;;;;;;20.20;61.40;;;;;;5071680;28;19931;-60
2023/12/19 13:48:35;;;;;;;;;;;20.20;61.40;;;;;;5072852;28;20420;-60
2023/12/19 13:51:00;;;;;;;;;;;20.20;61.40;;;;;;5053840;28;19924;-60
2023/12/19 13:53:26;;;;;;;;;;;20.20;61.40;;;;;;5072240;28;19925;-61
2023/12/19 13:55:51;;;;;;;;;;;20.20;61.50;;;;;;5072476;28;19954;-59
2023/12/19 13:58:17;;;;;;;;;;;20.20;61.40;;;;;;5072796;28;19931;-58
2023/12/19 14:00:42;;;;;;;;;;;20.20;61.40;;;;;;5070941;28;20021;-59
2023/12/19 14:03:10;;;;;;;;;;;20.30;61.40;;;;;;5070037;28;19978;-59
2023/12/19 14:05:35;;;;;;;;;;;20.20;61.40;;;;;;5072467;28;20388;-59
2023/12/19 14:08:01;;;;;;;;;;;20.20;61.30;;;;;;5071972;28;19947;-59
2023/12/19 14:10:26;;;;;;;;;;;20.20;61.20;;;;;;5054770;28;19955;-59